sensor_id;sensor_type;location;lat;lon;timestamp;P1;durP1;ratioP1;P2;durP2;ratioP2
57317;SDS011;43157;50.982;18.132;2022-09-02T00:01:52;6.20;;;1.30;;
57317;SDS011;43157;50.982;18.132;2022-09-02T00:04:23;4.20;;;1.00;;
57317;SDS011;43157;50.982;18.132;2022-09-02T00:06:50;6.80;;;1.20;;
57317;SDS011;43157;50.982;18.132;2022-09-02T00:09:17;6.60;;;1.20;;
57317;SDS011;43157;50.982;18.132;2022-09-02T00:11:45;4.50;;;1.00;;
57317;SDS011;43157;50.982;18.132;2022-09-02T00:14:14;7.50;;;1.10;;
57317;SDS011;43157;50.982;18.132;2022-09-02T00:16:43;5.90;;;0.90;;
57317;SDS011;43157;50.982;18.132;2022-09-02T00:19:16;7.30;;;1.70;;
57317;SDS011;43157;50.982;18.132;2022-09-02T00:21:46;6.30;;;1.10;;
57317;SDS011;43157;50.982;18.132;2022-09-02T00:24:13;4.20;;;0.90;;
57317;SDS011;43157;50.982;18.132;2022-09-02T00:26:39;6.20;;;1.20;;
57317;SDS011;43157;50.982;18.132;2022-09-02T00:29:05;7.70;;;1.50;;
57317;SDS011;43157;50.982;18.132;2022-09-02T00:31:31;5.40;;;1.20;;
57317;SDS011;43157;50.982;18.132;2022-09-02T00:33:58;6.80;;;1.40;;
57317;SDS011;43157;50.982;18.132;2022-09-02T00:36:27;4.90;;;1.50;;
57317;SDS011;43157;50.982;18.132;2022-09-02T00:38:53;6.20;;;1.20;;
57317;SDS011;43157;50.982;18.132;2022-09-02T00:41:20;6.30;;;1.40;;
57317;SDS011;43157;50.982;18.132;2022-09-02T00:43:49;6.30;;;1.20;;
57317;SDS011;43157;50.982;18.132;2022-09-02T00:46:20;7.40;;;1.50;;
57317;SDS011;43157;50.982;18.132;2022-09-02T00:51:47;5.50;;;1.30;;
57317;SDS011;43157;50.982;18.132;2022-09-02T00:54:18;6.80;;;1.40;;
57317;SDS011;43157;50.982;18.132;2022-09-02T00:56:46;5.30;;;1.30;;
57317;SDS011;43157;50.982;18.132;2022-09-02T00:59:14;7.20;;;1.50;;
57317;SDS011;43157;50.982;18.132;2022-09-02T01:01:44;5.90;;;1.30;;
57317;SDS011;43157;50.982;18.132;2022-09-02T01:04:11;7.90;;;1.30;;
57317;SDS011;43157;50.982;18.132;2022-09-02T01:06:37;6.60;;;1.40;;
57317;SDS011;43157;50.982;18.132;2022-09-02T01:09:05;5.60;;;1.30;;
57317;SDS011;43157;50.982;18.132;2022-09-02T01:11:35;6.00;;;1.40;;
57317;SDS011;43157;50.982;18.132;2022-09-02T01:14:04;6.70;;;1.50;;
57317;SDS011;43157;50.982;18.132;2022-09-02T01:16:42;6.90;;;1.40;;
57317;SDS011;43157;50.982;18.132;2022-09-02T01:19:13;6.40;;;1.30;;
57317;SDS011;43157;50.982;18.132;2022-09-02T01:21:49;7.60;;;1.30;;
57317;SDS011;43157;50.982;18.132;2022-09-02T01:24:19;5.30;;;1.30;;
57317;SDS011;43157;50.982;18.132;2022-09-02T01:26:46;6.40;;;1.50;;
57317;SDS011;43157;50.982;18.132;2022-09-02T01:29:12;9.00;;;1.40;;
57317;SDS011;43157;50.982;18.132;2022-09-02T01:31:40;5.40;;;1.20;;
57317;SDS011;43157;50.982;18.132;2022-09-02T01:34:06;4.60;;;1.10;;
57317;SDS011;43157;50.982;18.132;2022-09-02T01:36:34;7.90;;;1.30;;
57317;SDS011;43157;50.982;18.132;2022-09-02T01:39:02;5.50;;;1.10;;
57317;SDS011;43157;50.982;18.132;2022-09-02T01:41:28;7.60;;;1.40;;
57317;SDS011;43157;50.982;18.132;2022-09-02T01:43:54;4.50;;;1.30;;
57317;SDS011;43157;50.982;18.132;2022-09-02T01:46:21;4.50;;;1.20;;
57317;SDS011;43157;50.982;18.132;2022-09-02T01:48:48;6.40;;;1.50;;
57317;SDS011;43157;50.982;18.132;2022-09-02T01:51:16;9.90;;;1.60;;
57317;SDS011;43157;50.982;18.132;2022-09-02T01:53:43;6.10;;;1.10;;
57317;SDS011;43157;50.982;18.132;2022-09-02T01:56:09;4.70;;;1.50;;
57317;SDS011;43157;50.982;18.132;2022-09-02T01:58:36;6.70;;;1.50;;
57317;SDS011;43157;50.982;18.132;2022-09-02T02:01:02;7.40;;;1.70;;
57317;SDS011;43157;50.982;18.132;2022-09-02T02:03:28;7.80;;;1.70;;
57317;SDS011;43157;50.982;18.132;2022-09-02T02:05:54;7.80;;;1.80;;
57317;SDS011;43157;50.982;18.132;2022-09-02T02:08:21;7.80;;;1.60;;
57317;SDS011;43157;50.982;18.132;2022-09-02T02:10:48;6.10;;;1.60;;
57317;SDS011;43157;50.982;18.132;2022-09-02T02:13:15;9.20;;;1.50;;
57317;SDS011;43157;50.982;18.132;2022-09-02T02:15:41;5.80;;;1.60;;
57317;SDS011;43157;50.982;18.132;2022-09-02T02:18:08;6.30;;;1.40;;
57317;SDS011;43157;50.982;18.132;2022-09-02T02:20:35;5.60;;;1.60;;
57317;SDS011;43157;50.982;18.132;2022-09-02T02:23:01;6.20;;;1.70;;
57317;SDS011;43157;50.982;18.132;2022-09-02T02:25:30;6.80;;;1.60;;
57317;SDS011;43157;50.982;18.132;2022-09-02T02:27:56;6.60;;;1.70;;
57317;SDS011;43157;50.982;18.132;2022-09-02T02:30:22;9.30;;;1.40;;
57317;SDS011;43157;50.982;18.132;2022-09-02T02:32:49;5.70;;;1.50;;
57317;SDS011;43157;50.982;18.132;2022-09-02T02:35:17;6.90;;;1.70;;
57317;SDS011;43157;50.982;18.132;2022-09-02T02:37:44;6.90;;;1.50;;
57317;SDS011;43157;50.982;18.132;2022-09-02T02:40:13;5.70;;;1.50;;
57317;SDS011;43157;50.982;18.132;2022-09-02T02:42:40;6.60;;;1.60;;
57317;SDS011;43157;50.982;18.132;2022-09-02T02:45:06;5.40;;;1.80;;
57317;SDS011;43157;50.982;18.132;2022-09-02T02:47:36;7.30;;;1.60;;
57317;SDS011;43157;50.982;18.132;2022-09-02T02:50:06;8.10;;;2.00;;
57317;SDS011;43157;50.982;18.132;2022-09-02T02:52:34;9.80;;;1.80;;
57317;SDS011;43157;50.982;18.132;2022-09-02T02:55:01;10.00;;;1.60;;
57317;SDS011;43157;50.982;18.132;2022-09-02T02:57:27;5.80;;;1.70;;
57317;SDS011;43157;50.982;18.132;2022-09-02T02:59:53;6.20;;;1.70;;
57317;SDS011;43157;50.982;18.132;2022-09-02T03:02:20;7.20;;;1.90;;
57317;SDS011;43157;50.982;18.132;2022-09-02T03:04:46;6.40;;;1.90;;
57317;SDS011;43157;50.982;18.132;2022-09-02T03:07:12;8.00;;;2.30;;
57317;SDS011;43157;50.982;18.132;2022-09-02T03:09:38;12.50;;;2.20;;
57317;SDS011;43157;50.982;18.132;2022-09-02T03:12:07;6.50;;;1.70;;
57317;SDS011;43157;50.982;18.132;2022-09-02T03:14:34;8.90;;;2.30;;
57317;SDS011;43157;50.982;18.132;2022-09-02T03:17:02;6.10;;;1.90;;
57317;SDS011;43157;50.982;18.132;2022-09-02T03:19:28;6.70;;;1.90;;
57317;SDS011;43157;50.982;18.132;2022-09-02T03:21:54;6.20;;;1.70;;
57317;SDS011;43157;50.982;18.132;2022-09-02T03:24:21;9.30;;;2.40;;
57317;SDS011;43157;50.982;18.132;2022-09-02T03:26:47;8.80;;;2.40;;
57317;SDS011;43157;50.982;18.132;2022-09-02T03:29:14;7.90;;;2.00;;
57317;SDS011;43157;50.982;18.132;2022-09-02T03:31:40;7.80;;;1.80;;
57317;SDS011;43157;50.982;18.132;2022-09-02T03:34:06;7.60;;;1.90;;
57317;SDS011;43157;50.982;18.132;2022-09-02T03:36:36;7.20;;;2.10;;
57317;SDS011;43157;50.982;18.132;2022-09-02T03:39:06;5.90;;;2.00;;
57317;SDS011;43157;50.982;18.132;2022-09-02T03:41:33;8.60;;;2.20;;
57317;SDS011;43157;50.982;18.132;2022-09-02T03:43:59;9.40;;;2.00;;
57317;SDS011;43157;50.982;18.132;2022-09-02T03:46:26;10.50;;;2.70;;
57317;SDS011;43157;50.982;18.132;2022-09-02T03:48:52;7.70;;;2.10;;
57317;SDS011;43157;50.982;18.132;2022-09-02T03:51:19;8.10;;;2.20;;
57317;SDS011;43157;50.982;18.132;2022-09-02T03:53:48;6.20;;;2.20;;
57317;SDS011;43157;50.982;18.132;2022-09-02T03:56:14;7.40;;;2.10;;
57317;SDS011;43157;50.982;18.132;2022-09-02T03:58:44;6.90;;;2.10;;
57317;SDS011;43157;50.982;18.132;2022-09-02T04:01:15;9.30;;;2.30;;
57317;SDS011;43157;50.982;18.132;2022-09-02T04:03:43;6.10;;;2.10;;
57317;SDS011;43157;50.982;18.132;2022-09-02T04:06:10;10.40;;;2.70;;
57317;SDS011;43157;50.982;18.132;2022-09-02T04:08:40;8.20;;;2.50;;
57317;SDS011;43157;50.982;18.132;2022-09-02T04:11:08;10.00;;;2.40;;
57317;SDS011;43157;50.982;18.132;2022-09-02T04:13:39;8.40;;;2.50;;
57317;SDS011;43157;50.982;18.132;2022-09-02T04:16:06;10.60;;;3.10;;
57317;SDS011;43157;50.982;18.132;2022-09-02T04:18:33;9.10;;;2.70;;
57317;SDS011;43157;50.982;18.132;2022-09-02T04:21:00;9.80;;;2.50;;
57317;SDS011;43157;50.982;18.132;2022-09-02T04:23:26;6.50;;;2.20;;
57317;SDS011;43157;50.982;18.132;2022-09-02T04:25:53;8.20;;;2.70;;
57317;SDS011;43157;50.982;18.132;2022-09-02T04:28:19;11.70;;;2.40;;
57317;SDS011;43157;50.982;18.132;2022-09-02T04:30:45;8.20;;;2.30;;
57317;SDS011;43157;50.982;18.132;2022-09-02T04:33:12;7.20;;;2.00;;
57317;SDS011;43157;50.982;18.132;2022-09-02T04:35:39;8.40;;;2.60;;
57317;SDS011;43157;50.982;18.132;2022-09-02T04:38:06;9.40;;;2.80;;
57317;SDS011;43157;50.982;18.132;2022-09-02T04:40:32;11.70;;;2.70;;
57317;SDS011;43157;50.982;18.132;2022-09-02T04:42:58;7.00;;;2.30;;
57317;SDS011;43157;50.982;18.132;2022-09-02T04:45:25;10.00;;;2.50;;
57317;SDS011;43157;50.982;18.132;2022-09-02T04:47:51;7.80;;;2.20;;
57317;SDS011;43157;50.982;18.132;2022-09-02T04:50:17;8.50;;;2.40;;
57317;SDS011;43157;50.982;18.132;2022-09-02T04:52:43;9.30;;;2.30;;
57317;SDS011;43157;50.982;18.132;2022-09-02T04:55:10;9.50;;;2.70;;
57317;SDS011;43157;50.982;18.132;2022-09-02T04:57:36;8.30;;;2.30;;
57317;SDS011;43157;50.982;18.132;2022-09-02T05:00:06;8.20;;;2.50;;
57317;SDS011;43157;50.982;18.132;2022-09-02T05:02:32;8.40;;;2.10;;
57317;SDS011;43157;50.982;18.132;2022-09-02T05:04:58;7.00;;;2.30;;
57317;SDS011;43157;50.982;18.132;2022-09-02T05:07:25;9.90;;;2.10;;
57317;SDS011;43157;50.982;18.132;2022-09-02T05:09:55;5.50;;;1.90;;
57317;SDS011;43157;50.982;18.132;2022-09-02T05:12:22;7.10;;;2.10;;
57317;SDS011;43157;50.982;18.132;2022-09-02T05:14:49;7.90;;;2.60;;
57317;SDS011;43157;50.982;18.132;2022-09-02T05:17:16;7.70;;;2.40;;
57317;SDS011;43157;50.982;18.132;2022-09-02T05:19:42;7.70;;;2.40;;
57317;SDS011;43157;50.982;18.132;2022-09-02T05:22:08;5.70;;;2.00;;
57317;SDS011;43157;50.982;18.132;2022-09-02T05:24:34;10.70;;;3.20;;
57317;SDS011;43157;50.982;18.132;2022-09-02T05:27:01;9.00;;;2.40;;
57317;SDS011;43157;50.982;18.132;2022-09-02T05:29:27;7.50;;;2.80;;
57317;SDS011;43157;50.982;18.132;2022-09-02T05:31:53;7.60;;;2.50;;
57317;SDS011;43157;50.982;18.132;2022-09-02T05:34:19;8.20;;;2.50;;
57317;SDS011;43157;50.982;18.132;2022-09-02T05:36:46;10.40;;;2.90;;
57317;SDS011;43157;50.982;18.132;2022-09-02T05:39:13;7.10;;;2.20;;
57317;SDS011;43157;50.982;18.132;2022-09-02T05:41:39;6.50;;;2.00;;
57317;SDS011;43157;50.982;18.132;2022-09-02T05:44:05;7.50;;;2.20;;
57317;SDS011;43157;50.982;18.132;2022-09-02T05:46:32;10.10;;;2.30;;
57317;SDS011;43157;50.982;18.132;2022-09-02T05:48:58;7.80;;;2.20;;
57317;SDS011;43157;50.982;18.132;2022-09-02T05:51:39;9.10;;;2.60;;
57317;SDS011;43157;50.982;18.132;2022-09-02T05:54:08;7.30;;;2.00;;
57317;SDS011;43157;50.982;18.132;2022-09-02T05:56:36;7.40;;;2.00;;
57317;SDS011;43157;50.982;18.132;2022-09-02T05:59:06;8.60;;;2.30;;
57317;SDS011;43157;50.982;18.132;2022-09-02T06:01:33;7.80;;;2.10;;
57317;SDS011;43157;50.982;18.132;2022-09-02T06:04:00;8.50;;;1.80;;
57317;SDS011;43157;50.982;18.132;2022-09-02T06:06:27;7.90;;;2.20;;
57317;SDS011;43157;50.982;18.132;2022-09-02T06:08:54;8.40;;;1.90;;
57317;SDS011;43157;50.982;18.132;2022-09-02T06:11:20;6.40;;;1.60;;
57317;SDS011;43157;50.982;18.132;2022-09-02T06:13:46;8.20;;;2.10;;
57317;SDS011;43157;50.982;18.132;2022-09-02T06:16:14;6.70;;;1.50;;
57317;SDS011;43157;50.982;18.132;2022-09-02T06:18:41;5.30;;;1.30;;
57317;SDS011;43157;50.982;18.132;2022-09-02T06:21:07;6.10;;;1.60;;
57317;SDS011;43157;50.982;18.132;2022-09-02T06:23:35;8.50;;;1.90;;
57317;SDS011;43157;50.982;18.132;2022-09-02T06:26:03;10.00;;;1.80;;
57317;SDS011;43157;50.982;18.132;2022-09-02T06:28:30;7.90;;;1.80;;
57317;SDS011;43157;50.982;18.132;2022-09-02T06:30:56;6.60;;;1.50;;
57317;SDS011;43157;50.982;18.132;2022-09-02T06:33:23;7.80;;;1.90;;
57317;SDS011;43157;50.982;18.132;2022-09-02T06:35:49;9.10;;;1.70;;
57317;SDS011;43157;50.982;18.132;2022-09-02T06:38:15;7.50;;;1.60;;
57317;SDS011;43157;50.982;18.132;2022-09-02T06:40:49;8.00;;;1.50;;
57317;SDS011;43157;50.982;18.132;2022-09-02T06:43:16;6.70;;;1.60;;
57317;SDS011;43157;50.982;18.132;2022-09-02T06:45:42;9.10;;;1.60;;
57317;SDS011;43157;50.982;18.132;2022-09-02T06:48:09;7.90;;;1.50;;
57317;SDS011;43157;50.982;18.132;2022-09-02T06:50:42;5.70;;;1.90;;
57317;SDS011;43157;50.982;18.132;2022-09-02T06:53:09;7.70;;;1.50;;
57317;SDS011;43157;50.982;18.132;2022-09-02T06:55:40;8.30;;;1.50;;
57317;SDS011;43157;50.982;18.132;2022-09-02T06:58:08;9.10;;;1.60;;
57317;SDS011;43157;50.982;18.132;2022-09-02T07:00:34;8.70;;;1.60;;
57317;SDS011;43157;50.982;18.132;2022-09-02T07:03:01;12.00;;;2.30;;
57317;SDS011;43157;50.982;18.132;2022-09-02T07:05:46;7.80;;;1.70;;
57317;SDS011;43157;50.982;18.132;2022-09-02T07:08:12;8.30;;;1.70;;
57317;SDS011;43157;50.982;18.132;2022-09-02T07:10:41;8.40;;;2.00;;
57317;SDS011;43157;50.982;18.132;2022-09-02T07:13:07;7.30;;;1.70;;
57317;SDS011;43157;50.982;18.132;2022-09-02T07:15:33;6.60;;;1.60;;
57317;SDS011;43157;50.982;18.132;2022-09-02T07:17:59;6.30;;;1.90;;
57317;SDS011;43157;50.982;18.132;2022-09-02T07:20:26;5.80;;;1.50;;
57317;SDS011;43157;50.982;18.132;2022-09-02T07:22:52;7.60;;;1.50;;
57317;SDS011;43157;50.982;18.132;2022-09-02T07:25:21;4.70;;;1.30;;
57317;SDS011;43157;50.982;18.132;2022-09-02T07:27:47;5.30;;;1.40;;
57317;SDS011;43157;50.982;18.132;2022-09-02T07:30:15;6.40;;;1.50;;
57317;SDS011;43157;50.982;18.132;2022-09-02T07:32:42;7.20;;;1.40;;
57317;SDS011;43157;50.982;18.132;2022-09-02T07:35:08;8.30;;;1.40;;
57317;SDS011;43157;50.982;18.132;2022-09-02T07:37:34;6.20;;;1.40;;
57317;SDS011;43157;50.982;18.132;2022-09-02T07:40:05;6.60;;;1.40;;
57317;SDS011;43157;50.982;18.132;2022-09-02T07:42:31;6.70;;;1.30;;
57317;SDS011;43157;50.982;18.132;2022-09-02T07:44:57;5.50;;;1.10;;
57317;SDS011;43157;50.982;18.132;2022-09-02T07:47:24;5.80;;;1.20;;
57317;SDS011;43157;50.982;18.132;2022-09-02T07:49:50;7.40;;;1.20;;
57317;SDS011;43157;50.982;18.132;2022-09-02T07:52:16;6.40;;;1.10;;
57317;SDS011;43157;50.982;18.132;2022-09-02T07:54:42;5.40;;;0.80;;
57317;SDS011;43157;50.982;18.132;2022-09-02T07:57:09;6.10;;;1.10;;
57317;SDS011;43157;50.982;18.132;2022-09-02T07:59:35;5.40;;;1.10;;
57317;SDS011;43157;50.982;18.132;2022-09-02T08:02:02;4.60;;;1.30;;
57317;SDS011;43157;50.982;18.132;2022-09-02T08:04:28;3.90;;;1.50;;
57317;SDS011;43157;50.982;18.132;2022-09-02T08:06:54;5.10;;;0.80;;
57317;SDS011;43157;50.982;18.132;2022-09-02T08:09:21;3.20;;;0.90;;
57317;SDS011;43157;50.982;18.132;2022-09-02T08:11:47;4.70;;;0.80;;
57317;SDS011;43157;50.982;18.132;2022-09-02T08:14:16;7.50;;;1.20;;
57317;SDS011;43157;50.982;18.132;2022-09-02T08:16:48;4.80;;;0.80;;
57317;SDS011;43157;50.982;18.132;2022-09-02T08:19:15;4.80;;;0.90;;
57317;SDS011;43157;50.982;18.132;2022-09-02T08:21:41;3.60;;;1.00;;
57317;SDS011;43157;50.982;18.132;2022-09-02T08:24:07;3.70;;;0.80;;
57317;SDS011;43157;50.982;18.132;2022-09-02T08:26:33;3.40;;;0.70;;
57317;SDS011;43157;50.982;18.132;2022-09-02T08:29:02;5.50;;;1.30;;
57317;SDS011;43157;50.982;18.132;2022-09-02T08:31:29;4.70;;;1.00;;
57317;SDS011;43157;50.982;18.132;2022-09-02T08:33:56;4.30;;;0.70;;
57317;SDS011;43157;50.982;18.132;2022-09-02T08:36:23;4.50;;;0.90;;
57317;SDS011;43157;50.982;18.132;2022-09-02T08:38:49;4.30;;;0.80;;
57317;SDS011;43157;50.982;18.132;2022-09-02T08:43:52;4.10;;;0.60;;
57317;SDS011;43157;50.982;18.132;2022-09-02T08:46:21;2.70;;;0.60;;
57317;SDS011;43157;50.982;18.132;2022-09-02T08:51:55;3.40;;;0.60;;
57317;SDS011;43157;50.982;18.132;2022-09-02T08:57:15;3.10;;;0.70;;
57317;SDS011;43157;50.982;18.132;2022-09-02T08:59:42;6.40;;;0.70;;
57317;SDS011;43157;50.982;18.132;2022-09-02T09:07:55;7.00;;;1.40;;
57317;SDS011;43157;50.982;18.132;2022-09-02T09:21:37;2.00;;;0.30;;
57317;SDS011;43157;50.982;18.132;2022-09-02T09:24:17;2.30;;;0.50;;
57317;SDS011;43157;50.982;18.132;2022-09-02T09:26:51;3.90;;;0.70;;
57317;SDS011;43157;50.982;18.132;2022-09-02T09:29:18;2.50;;;0.30;;
57317;SDS011;43157;50.982;18.132;2022-09-02T09:31:45;3.80;;;0.70;;
57317;SDS011;43157;50.982;18.132;2022-09-02T09:34:17;2.90;;;0.60;;
57317;SDS011;43157;50.982;18.132;2022-09-02T09:36:45;3.10;;;0.70;;
57317;SDS011;43157;50.982;18.132;2022-09-02T09:41:55;3.30;;;0.50;;
57317;SDS011;43157;50.982;18.132;2022-09-02T09:44:39;3.90;;;0.70;;
57317;SDS011;43157;50.982;18.132;2022-09-02T09:47:22;3.50;;;0.40;;
57317;SDS011;43157;50.982;18.132;2022-09-02T09:49:50;5.20;;;0.40;;
57317;SDS011;43157;50.982;18.132;2022-09-02T09:52:21;2.70;;;0.60;;
57317;SDS011;43157;50.982;18.132;2022-09-02T09:55:01;4.40;;;0.50;;
57317;SDS011;43157;50.982;18.132;2022-09-02T09:57:31;3.50;;;0.50;;
57317;SDS011;43157;50.982;18.132;2022-09-02T09:59:57;3.90;;;0.50;;
57317;SDS011;43157;50.982;18.132;2022-09-02T10:02:26;1.70;;;0.40;;
57317;SDS011;43157;50.982;18.132;2022-09-02T10:08:01;4.90;;;1.00;;
57317;SDS011;43157;50.982;18.132;2022-09-02T10:10:29;3.00;;;0.70;;
57317;SDS011;43157;50.982;18.132;2022-09-02T10:12:57;4.40;;;0.80;;
57317;SDS011;43157;50.982;18.132;2022-09-02T10:15:44;2.10;;;0.40;;
57317;SDS011;43157;50.982;18.132;2022-09-02T10:18:22;3.20;;;0.60;;
57317;SDS011;43157;50.982;18.132;2022-09-02T10:24:04;2.90;;;0.50;;
57317;SDS011;43157;50.982;18.132;2022-09-02T10:26:56;2.20;;;0.40;;
57317;SDS011;43157;50.982;18.132;2022-09-02T10:29:37;5.70;;;0.90;;
57317;SDS011;43157;50.982;18.132;2022-09-02T10:35:21;1.70;;;0.50;;
57317;SDS011;43157;50.982;18.132;2022-09-02T10:40:54;2.40;;;0.50;;
57317;SDS011;43157;50.982;18.132;2022-09-02T10:46:15;2.00;;;0.40;;
57317;SDS011;43157;50.982;18.132;2022-09-02T10:51:37;4.10;;;0.50;;
57317;SDS011;43157;50.982;18.132;2022-09-02T11:04:35;3.40;;;0.50;;
57317;SDS011;43157;50.982;18.132;2022-09-02T11:07:11;3.90;;;0.40;;
57317;SDS011;43157;50.982;18.132;2022-09-02T11:09:46;2.00;;;0.40;;
57317;SDS011;43157;50.982;18.132;2022-09-02T11:12:31;2.80;;;0.50;;
57317;SDS011;43157;50.982;18.132;2022-09-02T11:15:02;4.80;;;0.40;;
57317;SDS011;43157;50.982;18.132;2022-09-02T11:17:52;5.20;;;0.60;;
57317;SDS011;43157;50.982;18.132;2022-09-02T11:20:35;2.70;;;0.50;;
57317;SDS011;43157;50.982;18.132;2022-09-02T11:26:15;4.90;;;0.40;;
57317;SDS011;43157;50.982;18.132;2022-09-02T11:28:54;3.80;;;0.40;;
57317;SDS011;43157;50.982;18.132;2022-09-02T11:31:29;3.90;;;0.40;;
57317;SDS011;43157;50.982;18.132;2022-09-02T11:34:04;3.80;;;0.70;;
57317;SDS011;43157;50.982;18.132;2022-09-02T11:36:47;4.30;;;0.90;;
57317;SDS011;43157;50.982;18.132;2022-09-02T11:39:23;6.50;;;1.60;;
57317;SDS011;43157;50.982;18.132;2022-09-02T11:42:29;3.90;;;0.70;;
57317;SDS011;43157;50.982;18.132;2022-09-02T11:55:40;1.60;;;0.30;;
57317;SDS011;43157;50.982;18.132;2022-09-02T11:58:08;3.20;;;0.40;;
57317;SDS011;43157;50.982;18.132;2022-09-02T12:00:35;3.90;;;0.60;;
57317;SDS011;43157;50.982;18.132;2022-09-02T12:03:21;3.30;;;0.50;;
57317;SDS011;43157;50.982;18.132;2022-09-02T12:05:50;3.00;;;0.40;;
57317;SDS011;43157;50.982;18.132;2022-09-02T12:11:01;3.00;;;0.40;;
57317;SDS011;43157;50.982;18.132;2022-09-02T12:18:43;3.20;;;0.50;;
57317;SDS011;43157;50.982;18.132;2022-09-02T12:21:11;2.60;;;0.50;;
57317;SDS011;43157;50.982;18.132;2022-09-02T12:28:47;2.50;;;0.40;;
57317;SDS011;43157;50.982;18.132;2022-09-02T12:31:15;4.50;;;0.50;;
57317;SDS011;43157;50.982;18.132;2022-09-02T12:33:46;1.20;;;0.30;;
57317;SDS011;43157;50.982;18.132;2022-09-02T12:44:30;3.50;;;0.40;;
57317;SDS011;43157;50.982;18.132;2022-09-02T12:52:45;3.40;;;0.50;;
57317;SDS011;43157;50.982;18.132;2022-09-02T12:57:53;3.00;;;0.30;;
57317;SDS011;43157;50.982;18.132;2022-09-02T13:03:12;2.10;;;0.30;;
57317;SDS011;43157;50.982;18.132;2022-09-02T13:10:55;3.40;;;0.50;;
57317;SDS011;43157;50.982;18.132;2022-09-02T13:17:02;4.10;;;0.50;;
57317;SDS011;43157;50.982;18.132;2022-09-02T13:19:40;5.30;;;0.70;;
57317;SDS011;43157;50.982;18.132;2022-09-02T13:33:47;5.30;;;0.40;;
57317;SDS011;43157;50.982;18.132;2022-09-02T13:36:29;3.80;;;0.60;;
57317;SDS011;43157;50.982;18.132;2022-09-02T13:39:14;2.40;;;0.30;;
57317;SDS011;43157;50.982;18.132;2022-09-02T13:41:51;2.30;;;0.30;;
57317;SDS011;43157;50.982;18.132;2022-09-02T13:44:24;3.40;;;0.40;;
57317;SDS011;43157;50.982;18.132;2022-09-02T13:46:53;4.30;;;0.50;;
57317;SDS011;43157;50.982;18.132;2022-09-02T13:49:22;2.40;;;0.50;;
57317;SDS011;43157;50.982;18.132;2022-09-02T13:51:52;3.00;;;0.60;;
57317;SDS011;43157;50.982;18.132;2022-09-02T13:54:42;3.40;;;0.30;;
57317;SDS011;43157;50.982;18.132;2022-09-02T13:57:09;2.10;;;0.30;;
57317;SDS011;43157;50.982;18.132;2022-09-02T13:59:37;2.40;;;0.40;;
57317;SDS011;43157;50.982;18.132;2022-09-02T14:05:12;2.10;;;0.40;;
57317;SDS011;43157;50.982;18.132;2022-09-02T14:07:49;5.00;;;0.50;;
57317;SDS011;43157;50.982;18.132;2022-09-02T14:10:17;0.90;;;0.40;;
57317;SDS011;43157;50.982;18.132;2022-09-02T14:12:44;2.70;;;0.30;;
57317;SDS011;43157;50.982;18.132;2022-09-02T14:15:12;4.20;;;0.50;;
57317;SDS011;43157;50.982;18.132;2022-09-02T14:17:39;2.60;;;0.30;;
57317;SDS011;43157;50.982;18.132;2022-09-02T14:20:09;4.40;;;0.60;;
57317;SDS011;43157;50.982;18.132;2022-09-02T14:22:55;5.40;;;0.70;;
57317;SDS011;43157;50.982;18.132;2022-09-02T14:25:23;3.90;;;0.50;;
57317;SDS011;43157;50.982;18.132;2022-09-02T14:27:51;3.00;;;0.70;;
57317;SDS011;43157;50.982;18.132;2022-09-02T14:35:53;3.30;;;0.50;;
57317;SDS011;43157;50.982;18.132;2022-09-02T14:38:30;6.20;;;0.60;;
57317;SDS011;43157;50.982;18.132;2022-09-02T14:41:00;3.90;;;0.50;;
57317;SDS011;43157;50.982;18.132;2022-09-02T14:43:40;2.70;;;0.60;;
57317;SDS011;43157;50.982;18.132;2022-09-02T14:48:50;1.40;;;0.50;;
57317;SDS011;43157;50.982;18.132;2022-09-02T14:51:20;4.50;;;0.60;;
57317;SDS011;43157;50.982;18.132;2022-09-02T14:53:46;4.70;;;0.60;;
57317;SDS011;43157;50.982;18.132;2022-09-02T14:56:12;5.10;;;0.60;;
57317;SDS011;43157;50.982;18.132;2022-09-02T14:58:38;3.10;;;0.70;;
57317;SDS011;43157;50.982;18.132;2022-09-02T15:01:05;4.00;;;0.60;;
57317;SDS011;43157;50.982;18.132;2022-09-02T15:03:35;1.40;;;0.40;;
57317;SDS011;43157;50.982;18.132;2022-09-02T15:06:02;3.60;;;0.50;;
57317;SDS011;43157;50.982;18.132;2022-09-02T15:08:28;3.60;;;0.40;;
57317;SDS011;43157;50.982;18.132;2022-09-02T15:10:57;4.40;;;0.60;;
57317;SDS011;43157;50.982;18.132;2022-09-02T15:13:25;4.50;;;0.80;;
57317;SDS011;43157;50.982;18.132;2022-09-02T15:15:53;2.70;;;0.50;;
57317;SDS011;43157;50.982;18.132;2022-09-02T15:18:20;3.00;;;0.50;;
57317;SDS011;43157;50.982;18.132;2022-09-02T15:20:47;2.60;;;0.40;;
57317;SDS011;43157;50.982;18.132;2022-09-02T15:23:14;2.60;;;0.40;;
57317;SDS011;43157;50.982;18.132;2022-09-02T15:25:40;2.60;;;0.40;;
57317;SDS011;43157;50.982;18.132;2022-09-02T15:28:06;3.30;;;0.60;;
57317;SDS011;43157;50.982;18.132;2022-09-02T15:30:33;5.20;;;0.60;;
57317;SDS011;43157;50.982;18.132;2022-09-02T15:33:03;1.90;;;0.40;;
57317;SDS011;43157;50.982;18.132;2022-09-02T15:35:30;1.30;;;0.40;;
57317;SDS011;43157;50.982;18.132;2022-09-02T15:37:58;3.20;;;0.50;;
57317;SDS011;43157;50.982;18.132;2022-09-02T15:40:26;2.80;;;0.40;;
57317;SDS011;43157;50.982;18.132;2022-09-02T15:42:52;3.70;;;0.50;;
57317;SDS011;43157;50.982;18.132;2022-09-02T15:45:19;4.30;;;0.50;;
57317;SDS011;43157;50.982;18.132;2022-09-02T15:47:45;4.00;;;0.40;;
57317;SDS011;43157;50.982;18.132;2022-09-02T15:50:11;3.20;;;0.50;;
57317;SDS011;43157;50.982;18.132;2022-09-02T15:52:37;4.10;;;0.40;;
57317;SDS011;43157;50.982;18.132;2022-09-02T15:55:04;3.90;;;0.50;;
57317;SDS011;43157;50.982;18.132;2022-09-02T15:57:30;4.00;;;0.80;;
57317;SDS011;43157;50.982;18.132;2022-09-02T15:59:56;3.50;;;0.80;;
57317;SDS011;43157;50.982;18.132;2022-09-02T16:02:22;5.30;;;0.80;;
57317;SDS011;43157;50.982;18.132;2022-09-02T16:04:48;5.10;;;0.70;;
57317;SDS011;43157;50.982;18.132;2022-09-02T16:07:15;3.50;;;0.70;;
57317;SDS011;43157;50.982;18.132;2022-09-02T16:09:41;5.10;;;0.80;;
57317;SDS011;43157;50.982;18.132;2022-09-02T16:12:07;4.50;;;0.80;;
57317;SDS011;43157;50.982;18.132;2022-09-02T16:14:33;2.70;;;0.70;;
57317;SDS011;43157;50.982;18.132;2022-09-02T16:16:59;3.40;;;0.60;;
57317;SDS011;43157;50.982;18.132;2022-09-02T16:19:26;5.40;;;0.70;;
57317;SDS011;43157;50.982;18.132;2022-09-02T16:21:53;4.00;;;0.60;;
57317;SDS011;43157;50.982;18.132;2022-09-02T16:24:19;4.60;;;0.60;;
57317;SDS011;43157;50.982;18.132;2022-09-02T16:26:47;5.50;;;0.70;;
57317;SDS011;43157;50.982;18.132;2022-09-02T16:29:15;3.60;;;0.50;;
57317;SDS011;43157;50.982;18.132;2022-09-02T16:31:43;3.40;;;0.50;;
57317;SDS011;43157;50.982;18.132;2022-09-02T16:34:14;4.20;;;0.70;;
57317;SDS011;43157;50.982;18.132;2022-09-02T16:36:45;3.10;;;0.50;;
57317;SDS011;43157;50.982;18.132;2022-09-02T16:39:12;2.70;;;0.50;;
57317;SDS011;43157;50.982;18.132;2022-09-02T16:41:40;4.50;;;0.80;;
57317;SDS011;43157;50.982;18.132;2022-09-02T16:44:09;7.00;;;0.70;;
57317;SDS011;43157;50.982;18.132;2022-09-02T16:46:37;4.20;;;0.80;;
57317;SDS011;43157;50.982;18.132;2022-09-02T16:49:05;4.80;;;0.80;;
57317;SDS011;43157;50.982;18.132;2022-09-02T16:51:31;4.20;;;0.90;;
57317;SDS011;43157;50.982;18.132;2022-09-02T16:53:58;3.70;;;0.60;;
57317;SDS011;43157;50.982;18.132;2022-09-02T16:56:25;5.10;;;0.60;;
57317;SDS011;43157;50.982;18.132;2022-09-02T16:58:52;4.80;;;0.70;;
57317;SDS011;43157;50.982;18.132;2022-09-02T17:01:19;4.20;;;0.70;;